Charlotte (CLT/KCLT)

Map

Destinations

Information

Location
Charlotte, NC
Local Time
01:45 / 1:45 am
GMT Time
05:45 / 5:45 am
Gates
A7
No FAA reported delays
METAR KCLT 190452Z 00000KT 10SM FEW250 05/04 A3032 RMK AO2 SLP264 T00500044 402170044
TAF KCLT 190236Z 1903/1924 03003KT P6SM FEW250